Time;durP1;ratioP1;P1;durP2;ratioP2;P2;SDS_P1;SDS_P2;PMS_P1;PMS_P2;Temp;Humidity;BMP_temperature;BMP_pressure;BME280_temperature;BME280_humidity;BME280_pressure;Samples;Min_cycle;Max_cycle;Signal;HPM_P1;HPM_P2
2023/01/22 00:00:34;;;;;;;9.32;5.30;;;0.50;99.90;;;;;;5075495;28;20122;-81
2023/01/22 00:03:01;;;;;;;10.82;5.53;;;-0.10;99.90;;;;;;5092251;28;20046;-81
2023/01/22 00:05:27;;;;;;;13.05;5.50;;;-0.10;99.90;;;;;;5125836;28;20093;-80
2023/01/22 00:07:54;;;;;;;14.18;5.97;;;-0.20;99.90;;;;;;5125898;28;20124;-81
2023/01/22 00:10:21;;;;;;;13.18;5.35;;;-0.10;99.90;;;;;;5108365;28;20169;-81
2023/01/22 00:12:48;;;;;;;12.88;6.15;;;-0.10;99.90;;;;;;5109110;28;20488;-81
2023/01/22 00:15:14;;;;;;;12.25;5.45;;;-0.20;99.90;;;;;;5108735;28;20127;-81
2023/01/22 00:17:41;;;;;;;15.02;5.45;;;-0.30;99.90;;;;;;5108942;28;20032;-81
2023/01/22 00:20:10;;;;;;;13.52;5.38;;;-0.30;99.90;;;;;;5125265;28;20445;-80
2023/01/22 00:22:36;;;;;;;10.30;4.75;;;-0.40;99.90;;;;;;5125251;28;20504;-81
2023/01/22 00:25:04;;;;;;;15.32;4.97;;;-0.40;99.90;;;;;;5125719;28;20036;-81
2023/01/22 00:27:30;;;;;;;10.40;5.18;;;-0.40;99.90;;;;;;5108515;28;20083;-81
2023/01/22 00:29:57;;;;;;;10.15;4.95;;;0.20;99.90;;;;;;5111176;28;20087;-81
2023/01/22 00:32:24;;;;;;;11.30;4.93;;;-0.40;99.90;;;;;;5111763;28;20044;-81
2023/01/22 00:34:51;;;;;;;10.60;4.88;;;-0.50;99.90;;;;;;5129201;28;20036;-81
2023/01/22 00:37:19;;;;;;;12.60;4.90;;;-0.40;99.90;;;;;;5112191;28;20412;-81
2023/01/22 00:39:46;;;;;;;13.63;4.72;;;-0.50;99.90;;;;;;5112315;28;20044;-81
2023/01/22 00:42:12;;;;;;;11.43;4.63;;;-0.20;99.90;;;;;;5128980;28;20036;-80
2023/01/22 00:44:39;;;;;;;11.82;4.75;;;-0.50;99.90;;;;;;5112341;28;20036;-81
2023/01/22 00:47:06;;;;;;;11.65;3.80;;;-0.50;99.90;;;;;;5129018;28;20134;-81
2023/01/22 00:49:32;;;;;;;10.85;4.63;;;-0.50;99.90;;;;;;5128595;28;20040;-81
2023/01/22 00:51:59;;;;;;;10.82;4.95;;;-0.50;99.90;;;;;;5111698;28;20126;-81
2023/01/22 00:54:26;;;;;;;12.20;5.18;;;-0.40;99.90;;;;;;5111066;28;20036;-81
2023/01/22 00:56:53;;;;;;;10.65;4.53;;;-0.60;99.90;;;;;;5128826;28;20040;-81
2023/01/22 00:59:20;;;;;;;9.90;4.82;;;0.30;99.90;;;;;;5128324;28;20488;-80
2023/01/22 01:01:46;;;;;;;11.00;5.03;;;-0.40;99.90;;;;;;5111449;28;20484;-80
2023/01/22 01:04:13;;;;;;;9.82;4.32;;;-0.60;99.90;;;;;;5094766;28;20036;-79
2023/01/22 01:06:40;;;;;;;8.73;4.15;;;-0.20;99.90;;;;;;5111660;28;20397;-80
2023/01/22 01:09:07;;;;;;;15.15;5.28;;;-0.60;99.90;;;;;;5095071;28;20032;-81
2023/01/22 01:11:33;;;;;;;10.27;5.35;;;-0.50;99.90;;;;;;5128294;28;20086;-81
2023/01/22 01:14:01;;;;;;;10.85;5.07;;;-0.50;99.90;;;;;;5128566;28;20473;-80
2023/01/22 01:16:30;;;;;;;11.02;4.13;;;-0.50;99.90;;;;;;5128067;28;20472;-81
2023/01/22 01:19:05;;;;;;;10.60;4.18;;;-0.50;99.90;;;;;;5128327;28;20431;-80
2023/01/22 01:21:32;;;;;;;12.05;5.15;;;-0.40;99.90;;;;;;5111206;28;20068;-80
2023/01/22 01:23:59;;;;;;;14.50;5.05;;;-0.40;99.90;;;;;;5094623;28;20077;-81
2023/01/22 01:26:27;;;;;;;12.90;4.60;;;-0.30;99.90;;;;;;5111260;28;20043;-81
2023/01/22 01:28:53;;;;;;;10.95;4.28;;;0.20;99.90;;;;;;5128338;28;20123;-81
2023/01/22 01:31:24;;;;;;;9.57;4.15;;;-0.30;99.90;;;;;;5111066;28;20150;-80
2023/01/22 01:33:52;;;;;;;10.65;4.32;;;0.50;99.90;;;;;;5111326;28;20074;-81
2023/01/22 01:36:21;;;;;;;13.40;4.45;;;0.60;99.90;;;;;;5111150;28;20170;-80
2023/01/22 01:38:47;;;;;;;10.35;4.28;;;-0.10;99.90;;;;;;5128390;28;20043;-81
2023/01/22 01:41:19;;;;;;;7.68;3.80;;;0.00;99.90;;;;;;5128194;28;20484;-81
2023/01/22 01:44:04;;;;;;;9.20;3.95;;;0.00;99.90;;;;;;5110864;28;20124;-80
2023/01/22 01:46:33;;;;;;;6.93;3.95;;;0.10;99.90;;;;;;5110494;28;20052;-81
2023/01/22 01:49:00;;;;;;;16.13;4.20;;;0.10;99.90;;;;;;5144751;28;20048;-81
2023/01/22 01:51:36;;;;;;;9.52;4.32;;;0.20;99.90;;;;;;5126945;28;20515;-81
2023/01/22 01:54:04;;;;;;;10.25;4.13;;;1.00;99.90;;;;;;5127536;28;20052;-81
2023/01/22 01:56:38;;;;;;;9.45;4.43;;;0.20;99.90;;;;;;5127421;28;20036;-80
2023/01/22 01:59:09;;;;;;;11.23;4.28;;;0.20;99.90;;;;;;5111177;28;20031;-81
2023/01/22 02:01:36;;;;;;;15.07;4.30;;;0.20;99.90;;;;;;5127087;28;20127;-81
2023/01/22 02:04:03;;;;;;;12.43;4.03;;;0.30;99.90;;;;;;5127385;28;20477;-81
2023/01/22 02:06:29;;;;;;;7.40;3.28;;;0.30;99.90;;;;;;5110039;28;20032;-80
2023/01/22 02:08:59;;;;;;;8.45;3.67;;;0.30;99.90;;;;;;5110556;28;20078;-81
2023/01/22 02:11:26;;;;;;;13.25;3.60;;;0.30;99.90;;;;;;5110150;28;20472;-81
2023/01/22 02:14:00;;;;;;;8.77;3.75;;;0.40;99.90;;;;;;5110529;28;20036;-81
2023/01/22 02:16:27;;;;;;;7.72;3.45;;;0.30;99.90;;;;;;5126875;28;20453;-81
2023/01/22 02:18:53;;;;;;;5.72;2.70;;;0.40;99.90;;;;;;5094058;28;20071;-81
2023/01/22 02:21:35;;;;;;;6.35;3.15;;;0.40;99.90;;;;;;5127591;28;20048;-81
2023/01/22 02:24:08;;;;;;;5.00;2.50;;;0.40;99.90;;;;;;5127331;28;20085;-81
2023/01/22 02:26:35;;;;;;;6.75;2.58;;;0.40;99.90;;;;;;5109907;28;20040;-80
2023/01/22 02:29:03;;;;;;;6.93;3.08;;;0.40;99.90;;;;;;5110391;28;20044;-80
2023/01/22 02:31:30;;;;;;;6.50;2.72;;;0.40;99.90;;;;;;5109651;28;20049;-80
2023/01/22 02:33:57;;;;;;;4.60;2.53;;;0.40;99.90;;;;;;5110686;28;20040;-81
2023/01/22 02:36:23;;;;;;;8.68;3.00;;;0.60;99.90;;;;;;5126919;28;20039;-81
2023/01/22 02:38:50;;;;;;;5.38;2.70;;;0.70;99.90;;;;;;5126841;28;20140;-81
2023/01/22 02:41:17;;;;;;;6.50;2.70;;;0.50;99.90;;;;;;5110217;28;20040;-80
2023/01/22 02:43:43;;;;;;;6.18;2.55;;;0.40;99.90;;;;;;5109424;28;20044;-81
2023/01/22 02:46:10;;;;;;;5.18;2.42;;;0.40;99.90;;;;;;5126814;28;20388;-80
2023/01/22 02:48:37;;;;;;;6.68;2.28;;;1.10;99.90;;;;;;5109329;28;20527;-80
2023/01/22 02:51:04;;;;;;;5.60;2.75;;;0.40;99.90;;;;;;5126497;28;20082;-81
2023/01/22 02:53:31;;;;;;;7.88;2.75;;;0.50;99.90;;;;;;5126030;28;20048;-81
2023/01/22 02:55:58;;;;;;;7.00;3.22;;;0.50;99.90;;;;;;5126580;28;20059;-81
2023/01/22 02:58:24;;;;;;;4.88;2.50;;;0.50;99.90;;;;;;5126446;28;20040;-82
2023/01/22 03:00:51;;;;;;;5.13;2.60;;;0.50;99.90;;;;;;5126245;28;20126;-80
2023/01/22 03:03:18;;;;;;;6.38;2.85;;;0.50;99.90;;;;;;5109721;28;20637;-80
2023/01/22 03:05:49;;;;;;;4.72;2.40;;;0.50;99.90;;;;;;5126246;28;20040;-81
2023/01/22 03:08:17;;;;;;;4.38;2.65;;;0.90;99.90;;;;;;5126033;28;20050;-80
2023/01/22 03:10:44;;;;;;;5.18;2.53;;;0.50;99.90;;;;;;5109390;28;20047;-81
2023/01/22 03:21:27;;;;;;;4.65;2.15;;;0.50;99.90;;;;;;5125514;28;20047;-80
2023/01/22 03:23:54;;;;;;;6.85;2.55;;;0.50;99.90;;;;;;5125530;28;20416;-80
2023/01/22 03:26:22;;;;;;;5.05;2.13;;;0.50;99.90;;;;;;5109043;28;20044;-81
2023/01/22 03:28:49;;;;;;;6.68;2.50;;;0.50;99.90;;;;;;5108959;28;20499;-81
2023/01/22 03:31:16;;;;;;;5.43;2.58;;;0.50;99.90;;;;;;5108961;28;20515;-81
2023/01/22 03:33:43;;;;;;;6.40;2.22;;;0.50;99.90;;;;;;5108859;28;20036;-80
2023/01/22 03:36:13;;;;;;;5.97;2.53;;;1.00;99.90;;;;;;5125895;28;20047;-81
2023/01/22 03:38:41;;;;;;;4.30;2.08;;;0.50;99.90;;;;;;5125603;28;20044;-81
2023/01/22 03:41:11;;;;;;;4.70;2.22;;;0.60;99.90;;;;;;5126010;28;20416;-81
2023/01/22 03:43:38;;;;;;;5.55;2.13;;;1.30;99.90;;;;;;5125360;28;20044;-81
2023/01/22 03:46:13;;;;;;;6.60;2.53;;;0.60;99.90;;;;;;5108842;28;20040;-81
2023/01/22 03:48:41;;;;;;;4.30;2.38;;;0.90;99.90;;;;;;5142353;28;20040;-81
2023/01/22 03:51:13;;;;;;;5.63;2.33;;;0.60;99.90;;;;;;5108754;28;20044;-81
2023/01/22 03:53:43;;;;;;;5.45;2.38;;;0.50;99.90;;;;;;5108722;28;20051;-80
2023/01/22 03:56:12;;;;;;;4.03;2.13;;;0.90;99.90;;;;;;5125858;28;20032;-81
2023/01/22 03:58:40;;;;;;;4.15;2.05;;;0.50;99.90;;;;;;5125715;28;20032;-80
2023/01/22 04:01:09;;;;;;;4.65;2.40;;;0.50;99.90;;;;;;5109238;28;20403;-81
2023/01/22 04:03:36;;;;;;;5.88;2.63;;;0.50;99.90;;;;;;5109388;28;20044;-81
2023/01/22 04:06:04;;;;;;;4.95;2.10;;;0.50;99.90;;;;;;5112668;28;20036;-81
2023/01/22 04:08:33;;;;;;;4.90;2.30;;;0.50;99.90;;;;;;5129627;28;20048;-81
2023/01/22 04:11:00;;;;;;;5.93;2.22;;;0.50;99.90;;;;;;5129723;28;20047;-81
2023/01/22 04:13:29;;;;;;;3.97;2.05;;;1.50;99.90;;;;;;5112877;28;20111;-80
2023/01/22 04:15:55;;;;;;;2.95;1.58;;;0.50;99.90;;;;;;5096131;28;20050;-81
2023/01/22 04:18:22;;;;;;;6.50;2.83;;;0.70;99.90;;;;;;5112672;28;20119;-80
2023/01/22 04:20:50;;;;;;;6.28;2.53;;;0.50;99.90;;;;;;5129118;28;20043;-81
2023/01/22 04:23:18;;;;;;;7.03;2.58;;;0.40;99.90;;;;;;5129442;28;20036;-80
2023/01/22 04:25:45;;;;;;;6.43;2.50;;;1.40;99.90;;;;;;5128979;28;20044;-80
2023/01/22 04:28:13;;;;;;;5.43;2.33;;;0.40;99.90;;;;;;5129505;28;20410;-80
2023/01/22 04:30:41;;;;;;;4.28;2.10;;;0.40;99.90;;;;;;5112408;28;20399;-80
2023/01/22 04:33:08;;;;;;;5.72;2.45;;;0.40;99.90;;;;;;5095413;28;20043;-82
2023/01/22 04:35:35;;;;;;;9.68;2.53;;;0.40;99.90;;;;;;5112203;28;20032;-81
2023/01/22 04:38:04;;;;;;;3.92;1.98;;;0.40;99.90;;;;;;5112318;28;20044;-81
2023/01/22 04:40:31;;;;;;;4.07;1.92;;;0.80;99.90;;;;;;5112556;28;20658;-80
2023/01/22 04:43:01;;;;;;;5.00;2.53;;;0.30;99.90;;;;;;5128452;28;20050;-81
2023/01/22 04:45:28;;;;;;;6.57;2.15;;;0.40;99.90;;;;;;5129324;28;20048;-81
2023/01/22 04:47:56;;;;;;;5.45;2.53;;;0.40;99.90;;;;;;5128973;28;20105;-81
2023/01/22 04:50:25;;;;;;;4.65;2.22;;;0.30;99.90;;;;;;5128976;28;20510;-81
2023/01/22 04:52:53;;;;;;;5.85;2.90;;;0.30;99.90;;;;;;5111812;28;20131;-80
2023/01/22 04:55:21;;;;;;;5.78;2.60;;;0.30;99.90;;;;;;5111688;28;20040;-80
2023/01/22 04:57:48;;;;;;;12.68;2.53;;;0.30;99.90;;;;;;5111657;28;20051;-80
2023/01/22 05:00:15;;;;;;;8.77;2.88;;;0.30;99.90;;;;;;5128741;28;20040;-80
2023/01/22 05:02:42;;;;;;;5.30;2.28;;;0.30;99.90;;;;;;5111932;28;20044;-80
2023/01/22 05:05:09;;;;;;;6.43;2.42;;;0.30;99.90;;;;;;5111701;28;20043;-81
2023/01/22 05:07:35;;;;;;;7.88;2.05;;;0.30;99.90;;;;;;5111624;28;20048;-81
2023/01/22 05:10:02;;;;;;;4.80;2.30;;;0.30;99.90;;;;;;5094829;28;20498;-81
2023/01/22 05:12:29;;;;;;;5.88;2.70;;;0.30;99.90;;;;;;5111321;28;20040;-81
2023/01/22 05:14:56;;;;;;;3.45;1.70;;;0.70;99.90;;;;;;5094224;28;20036;-81
2023/01/22 05:17:22;;;;;;;5.57;2.58;;;0.30;99.90;;;;;;5128368;28;20545;-80
2023/01/22 05:19:49;;;;;;;3.70;1.75;;;0.20;99.90;;;;;;5094939;28;20389;-80
2023/01/22 05:22:16;;;;;;;7.50;2.25;;;0.20;99.90;;;;;;5111742;28;20106;-81
2023/01/22 05:24:42;;;;;;;6.07;2.60;;;0.20;99.90;;;;;;5094825;28;20093;-81
2023/01/22 05:27:09;;;;;;;4.53;2.08;;;0.20;99.90;;;;;;5111360;28;20052;-80
2023/01/22 05:29:35;;;;;;;8.05;2.08;;;0.20;99.90;;;;;;5111358;28;20048;-81
2023/01/22 05:32:03;;;;;;;3.72;2.22;;;0.20;99.90;;;;;;5111097;28;20067;-80
2023/01/22 05:34:29;;;;;;;5.07;2.00;;;0.20;99.90;;;;;;5111025;28;20186;-80
2023/01/22 05:36:56;;;;;;;6.05;2.90;;;0.20;99.90;;;;;;5093742;28;20945;-81
2023/01/22 05:39:23;;;;;;;4.18;2.35;;;0.50;99.90;;;;;;5128218;28;20036;-81
2023/01/22 05:41:50;;;;;;;5.63;2.35;;;0.20;99.90;;;;;;5127972;28;20036;-81
2023/01/22 05:44:17;;;;;;;5.00;2.30;;;0.20;99.90;;;;;;5110921;28;20404;-81
2023/01/22 05:46:43;;;;;;;5.20;2.47;;;0.20;99.90;;;;;;5110991;28;20032;-81
2023/01/22 05:49:10;;;;;;;3.60;2.05;;;0.20;99.90;;;;;;5111050;28;20075;-81
2023/01/22 05:51:37;;;;;;;7.10;2.38;;;0.20;99.90;;;;;;5127531;28;20054;-80
2023/01/22 05:54:04;;;;;;;5.45;2.25;;;0.20;99.90;;;;;;5094192;28;20076;-80
2023/01/22 05:56:31;;;;;;;4.90;2.25;;;0.20;99.90;;;;;;5127288;28;20446;-80
2023/01/22 05:58:58;;;;;;;4.20;2.45;;;1.10;99.90;;;;;;5127021;28;20036;-81
2023/01/22 06:01:24;;;;;;;6.90;2.47;;;0.10;99.90;;;;;;5127607;28;20042;-80
2023/01/22 06:03:52;;;;;;;4.30;2.20;;;0.20;99.90;;;;;;5127509;28;20044;-80
2023/01/22 06:06:19;;;;;;;6.05;2.65;;;0.10;99.90;;;;;;5127151;28;20044;-80
2023/01/22 06:08:47;;;;;;;5.00;2.90;;;0.10;99.90;;;;;;5110502;28;20040;-81
2023/01/22 06:11:15;;;;;;;4.07;2.35;;;0.20;99.90;;;;;;5127148;28;20036;-81
2023/01/22 06:13:42;;;;;;;5.93;2.80;;;0.20;99.90;;;;;;5110718;28;20052;-81
2023/01/22 06:16:09;;;;;;;4.32;2.47;;;0.20;99.90;;;;;;5109938;28;20504;-80
2023/01/22 06:18:36;;;;;;;6.35;2.92;;;0.20;99.90;;;;;;5127221;28;20040;-80
2023/01/22 06:21:05;;;;;;;6.20;2.83;;;0.20;99.90;;;;;;5127163;28;20854;-80
2023/01/22 06:23:32;;;;;;;6.20;3.03;;;0.30;99.90;;;;;;5110364;28;20074;-80
2023/01/22 06:26:01;;;;;;;5.20;2.67;;;0.20;99.90;;;;;;5126530;28;20459;-80
2023/01/22 06:28:28;;;;;;;4.75;2.22;;;0.20;99.90;;;;;;5109490;28;20052;-80
2023/01/22 06:30:57;;;;;;;8.30;3.08;;;0.20;99.90;;;;;;5110052;28;20420;-81
2023/01/22 06:33:24;;;;;;;6.57;2.50;;;0.20;99.90;;;;;;5127236;28;20119;-80
2023/01/22 06:35:55;;;;;;;6.22;2.72;;;0.20;99.90;;;;;;5126656;28;20043;-81
2023/01/22 06:38:22;;;;;;;6.28;2.78;;;0.20;99.90;;;;;;5126529;28;20067;-81
2023/01/22 06:40:54;;;;;;;5.05;2.78;;;0.10;99.90;;;;;;5126722;28;20036;-80
2023/01/22 06:43:20;;;;;;;4.22;2.20;;;0.10;99.90;;;;;;5109767;28;20036;-80
2023/01/22 06:45:47;;;;;;;6.90;3.05;;;0.20;99.90;;;;;;5109790;28;20043;-81
2023/01/22 06:48:15;;;;;;;5.95;2.65;;;0.20;99.90;;;;;;5126308;28;20404;-81
2023/01/22 06:50:42;;;;;;;5.25;2.40;;;0.20;99.90;;;;;;5109363;28;20797;-81
2023/01/22 06:53:09;;;;;;;4.85;2.60;;;0.10;99.90;;;;;;5126176;28;20040;-80
2023/01/22 06:55:36;;;;;;;9.02;2.92;;;0.10;99.90;;;;;;5126493;28;20109;-81
2023/01/22 06:58:03;;;;;;;8.48;2.80;;;0.10;99.90;;;;;;5109422;28;20028;-81
2023/01/22 07:00:30;;;;;;;7.05;2.75;;;0.20;99.90;;;;;;5126295;28;20070;-81
2023/01/22 07:02:57;;;;;;;5.93;2.75;;;0.20;99.90;;;;;;5109916;28;20119;-81
2023/01/22 07:05:24;;;;;;;9.95;2.47;;;0.10;99.90;;;;;;5125449;28;20136;-81
2023/01/22 07:07:54;;;;;;;5.60;2.53;;;0.10;99.90;;;;;;5098119;28;20095;-81
2023/01/22 07:10:21;;;;;;;5.10;2.65;;;0.20;99.90;;;;;;5107810;28;20427;-81
2023/01/22 07:12:52;;;;;;;5.32;2.55;;;0.20;99.90;;;;;;5126438;28;20032;-80
2023/01/22 07:15:19;;;;;;;9.88;3.65;;;0.20;99.90;;;;;;5125252;28;20451;-80
2023/01/22 07:17:51;;;;;;;6.70;2.70;;;0.10;99.90;;;;;;5089260;28;20036;-80
2023/01/22 07:20:19;;;;;;;6.07;2.30;;;0.20;99.90;;;;;;5118402;28;20118;-81
2023/01/22 07:22:47;;;;;;;5.07;2.50;;;0.10;99.90;;;;;;5116665;28;20048;-83
2023/01/22 07:25:14;;;;;;;14.80;2.97;;;0.70;99.90;;;;;;5101083;28;20489;-80
2023/01/22 07:27:41;;;;;;;5.15;2.65;;;0.20;99.90;;;;;;5101974;28;20047;-79
2023/01/22 07:30:08;;;;;;;11.52;2.13;;;0.20;99.90;;;;;;5095071;28;20496;-80
2023/01/22 07:32:35;;;;;;;4.10;2.50;;;0.20;99.90;;;;;;5115203;28;20074;-80
2023/01/22 07:35:02;;;;;;;8.07;3.45;;;0.20;99.90;;;;;;5095335;28;20536;-79
2023/01/22 07:37:29;;;;;;;11.63;4.00;;;0.20;99.90;;;;;;5092680;28;20028;-80
2023/01/22 07:39:55;;;;;;;8.70;3.72;;;0.20;99.90;;;;;;5109696;28;20044;-79
2023/01/22 07:42:22;;;;;;;7.57;3.95;;;0.20;99.90;;;;;;5108303;28;20824;-80
2023/01/22 07:44:49;;;;;;;7.15;4.22;;;0.20;99.90;;;;;;5110017;28;20055;-80
2023/01/22 07:47:15;;;;;;;9.15;4.03;;;0.20;99.90;;;;;;5118232;28;20404;-80
2023/01/22 07:49:42;;;;;;;7.25;4.05;;;0.20;99.90;;;;;;5098300;28;20117;-79
2023/01/22 07:52:09;;;;;;;8.25;4.22;;;0.20;99.90;;;;;;5107563;28;20048;-81
2023/01/22 07:54:35;;;;;;;6.57;4.13;;;0.20;99.90;;;;;;5095925;28;20044;-81
2023/01/22 07:57:03;;;;;;;7.47;3.95;;;0.60;99.90;;;;;;5090492;28;20042;-81
2023/01/22 07:59:29;;;;;;;8.15;4.70;;;0.20;99.90;;;;;;5108671;28;20037;-80
2023/01/22 08:01:56;;;;;;;7.57;4.20;;;0.20;99.90;;;;;;5098761;28;20037;-82
2023/01/22 08:04:24;;;;;;;6.50;4.47;;;0.20;99.90;;;;;;5117668;28;20476;-81
2023/01/22 08:06:51;;;;;;;8.35;5.15;;;0.30;99.90;;;;;;5108506;28;20480;-80
2023/01/22 08:09:23;;;;;;;7.38;4.70;;;0.20;99.90;;;;;;5141664;28;20086;-81
2023/01/22 08:11:51;;;;;;;7.20;4.97;;;0.20;99.90;;;;;;5119215;28;20056;-81
2023/01/22 08:14:18;;;;;;;9.45;5.60;;;0.20;99.90;;;;;;5107751;28;20083;-82
2023/01/22 08:16:45;;;;;;;9.77;5.57;;;0.20;99.90;;;;;;5105549;28;20080;-82
2023/01/22 08:19:13;;;;;;;8.50;5.82;;;0.20;99.90;;;;;;5106405;28;20040;-81
2023/01/22 08:21:40;;;;;;;7.35;5.15;;;0.20;99.90;;;;;;5109391;28;21268;-81
2023/01/22 08:24:09;;;;;;;8.65;6.22;;;0.20;99.90;;;;;;5103712;28;20876;-81
2023/01/22 08:26:35;;;;;;;8.82;5.90;;;0.20;99.90;;;;;;5110122;28;20044;-82
2023/01/22 08:29:02;;;;;;;9.98;6.10;;;0.20;99.90;;;;;;5112189;28;20469;-81
2023/01/22 08:31:29;;;;;;;9.63;6.30;;;1.00;99.90;;;;;;5097352;28;20477;-81
2023/01/22 08:33:58;;;;;;;9.98;6.57;;;0.20;99.90;;;;;;5106116;28;20037;-81
2023/01/22 08:36:25;;;;;;;10.23;6.18;;;0.20;99.90;;;;;;5124486;28;20094;-81
2023/01/22 08:38:52;;;;;;;8.77;5.60;;;0.20;99.90;;;;;;5125243;28;20508;-81
2023/01/22 08:41:19;;;;;;;9.32;6.47;;;0.30;99.90;;;;;;5107918;28;20051;-82
2023/01/22 08:43:45;;;;;;;8.73;6.05;;;0.30;99.90;;;;;;5108586;28;20043;-81
2023/01/22 08:46:12;;;;;;;9.20;6.22;;;0.30;99.90;;;;;;5103192;28;20047;-76
2023/01/22 08:48:41;;;;;;;13.25;6.35;;;0.30;99.90;;;;;;5113417;28;20127;-79
2023/01/22 08:51:08;;;;;;;8.95;6.00;;;0.30;99.90;;;;;;5111570;28;20044;-79
2023/01/22 08:53:34;;;;;;;9.23;6.22;;;0.30;99.90;;;;;;5128679;28;20517;-80
2023/01/22 08:56:01;;;;;;;12.13;6.35;;;0.30;99.90;;;;;;5129272;28;20032;-80
2023/01/22 08:58:28;;;;;;;11.07;6.30;;;0.30;99.90;;;;;;5111681;28;20075;-79
2023/01/22 09:00:54;;;;;;;16.55;6.70;;;0.30;99.90;;;;;;5112203;28;20044;-79
2023/01/22 09:03:21;;;;;;;10.70;6.38;;;0.30;99.90;;;;;;5111748;28;20039;-80
2023/01/22 09:05:49;;;;;;;11.77;6.63;;;0.40;99.90;;;;;;5129164;28;20044;-80
2023/01/22 09:08:16;;;;;;;9.95;6.40;;;1.40;99.90;;;;;;5121402;28;20051;-80
2023/01/22 09:10:43;;;;;;;10.70;6.10;;;0.50;99.90;;;;;;5108008;28;20040;-80
2023/01/22 09:13:10;;;;;;;13.32;6.55;;;1.00;99.90;;;;;;5096125;28;20035;-79
2023/01/22 09:15:38;;;;;;;10.00;6.28;;;1.10;99.90;;;;;;5128419;28;20039;-80
2023/01/22 09:18:05;;;;;;;10.98;6.70;;;1.00;99.90;;;;;;5112024;28;20460;-79
2023/01/22 09:20:32;;;;;;;10.43;6.47;;;0.50;99.90;;;;;;5111497;28;20039;-79
2023/01/22 09:22:58;;;;;;;9.68;6.05;;;0.60;99.90;;;;;;5095094;28;20040;-80
2023/01/22 09:25:25;;;;;;;12.15;6.53;;;0.50;99.90;;;;;;5127834;28;20047;-80
2023/01/22 09:27:59;;;;;;;8.57;5.30;;;0.50;99.90;;;;;;5094863;28;20044;-80
2023/01/22 09:30:28;;;;;;;10.57;6.00;;;0.80;99.90;;;;;;5111090;28;20047;-80
2023/01/22 09:32:55;;;;;;;11.68;6.00;;;0.60;99.90;;;;;;5128214;28;20044;-80
2023/01/22 09:35:22;;;;;;;11.15;6.45;;;0.60;99.90;;;;;;5111000;28;20097;-80
2023/01/22 09:37:49;;;;;;;11.68;6.20;;;1.50;99.90;;;;;;5111515;28;20032;-79
2023/01/22 09:40:29;;;;;;;11.07;5.93;;;1.50;99.90;;;;;;5094951;28;20040;-80
2023/01/22 09:43:22;;;;;;;12.68;6.50;;;0.70;99.90;;;;;;5111470;28;20047;-79
2023/01/22 09:45:53;;;;;;;9.50;5.60;;;0.70;99.90;;;;;;5126272;28;20131;-79
2023/01/22 09:48:22;;;;;;;8.90;6.03;;;0.70;99.90;;;;;;5111270;28;20381;-80
2023/01/22 09:50:50;;;;;;;7.07;4.97;;;0.80;99.90;;;;;;5111074;28;20044;-80
2023/01/22 09:53:19;;;;;;;9.35;5.90;;;0.80;99.90;;;;;;5110853;28;20405;-80
2023/01/22 09:55:51;;;;;;;9.10;5.82;;;0.80;99.90;;;;;;5105789;28;20408;-79
2023/01/22 09:58:23;;;;;;;8.07;5.40;;;0.80;99.90;;;;;;5091209;28;20041;-80
2023/01/22 10:01:00;;;;;;;12.20;6.05;;;0.80;99.90;;;;;;5100040;28;20569;-80
2023/01/22 10:03:41;;;;;;;9.55;6.55;;;0.70;99.90;;;;;;5110583;28;20040;-79
2023/01/22 10:06:22;;;;;;;8.85;6.35;;;0.80;99.90;;;;;;5127756;28;20070;-79
2023/01/22 10:08:49;;;;;;;10.10;6.35;;;0.80;99.90;;;;;;5110928;28;20105;-80
2023/01/22 10:11:16;;;;;;;8.98;6.28;;;0.80;99.90;;;;;;5127416;28;20083;-80
2023/01/22 10:13:43;;;;;;;9.15;5.63;;;0.90;99.90;;;;;;5090119;28;20097;-79
2023/01/22 10:16:11;;;;;;;13.93;6.15;;;0.90;99.90;;;;;;5109309;28;20044;-80
2023/01/22 10:18:53;;;;;;;9.40;5.97;;;1.00;99.90;;;;;;5110239;28;20067;-79
2023/01/22 10:21:32;;;;;;;10.05;5.93;;;1.00;99.90;;;;;;5141646;28;20097;-80
2023/01/22 10:23:59;;;;;;;10.55;6.35;;;1.00;99.90;;;;;;5106712;28;20041;-80
2023/01/22 10:26:37;;;;;;;9.50;6.45;;;1.30;99.90;;;;;;5073863;28;20052;-80
2023/01/22 10:29:12;;;;;;;8.90;6.20;;;1.10;99.90;;;;;;5090496;28;20082;-80
2023/01/22 10:31:45;;;;;;;9.07;5.90;;;1.10;99.90;;;;;;5097959;28;20093;-80
2023/01/22 10:34:26;;;;;;;8.80;5.82;;;1.10;99.90;;;;;;5127175;28;20492;-80
2023/01/22 10:36:54;;;;;;;10.38;6.22;;;1.10;99.90;;;;;;5109925;28;20059;-80
2023/01/22 10:39:20;;;;;;;9.45;6.40;;;1.20;99.90;;;;;;5077104;28;20450;-80
2023/01/22 10:41:48;;;;;;;10.63;5.95;;;1.20;99.90;;;;;;5093556;28;20040;-80
2023/01/22 10:44:17;;;;;;;9.80;6.22;;;1.20;99.90;;;;;;5109821;28;20036;-80
2023/01/22 10:46:45;;;;;;;13.75;5.85;;;1.20;99.90;;;;;;5126601;28;20063;-80
2023/01/22 10:49:32;;;;;;;10.80;6.00;;;1.30;99.90;;;;;;5076897;28;20044;-80
2023/01/22 10:52:04;;;;;;;10.15;6.43;;;1.30;99.90;;;;;;5089059;28;20131;-79
2023/01/22 10:54:38;;;;;;;8.55;5.93;;;1.30;99.90;;;;;;5098325;28;20412;-80
2023/01/22 10:57:24;;;;;;;8.85;5.65;;;1.40;99.90;;;;;;5127003;28;20408;-80
2023/01/22 11:00:12;;;;;;;8.88;5.78;;;1.40;99.90;;;;;;5089674;28;20483;-80
2023/01/22 11:02:47;;;;;;;9.68;6.43;;;1.50;99.90;;;;;;5106860;28;20079;-79
2023/01/22 11:05:25;;;;;;;11.18;6.35;;;1.60;99.90;;;;;;5093405;28;20074;-80
2023/01/22 11:08:10;;;;;;;9.10;6.00;;;1.70;99.90;;;;;;5107384;28;20373;-80
2023/01/22 11:11:00;;;;;;;10.07;6.20;;;1.70;99.90;;;;;;5089318;28;20184;-80
2023/01/22 11:13:43;;;;;;;10.93;5.90;;;1.80;99.90;;;;;;5092194;28;20165;-80
2023/01/22 11:16:16;;;;;;;8.32;5.50;;;1.80;99.90;;;;;;5109737;28;20395;-80
2023/01/22 11:19:11;;;;;;;11.32;5.97;;;1.80;99.90;;;;;;5109308;28;20512;-80
2023/01/22 11:21:49;;;;;;;11.13;5.85;;;1.80;99.90;;;;;;5105482;28;20504;-80
2023/01/22 11:24:21;;;;;;;9.05;5.28;;;1.80;99.90;;;;;;5109196;28;20068;-80
2023/01/22 11:27:03;;;;;;;9.07;5.75;;;1.70;99.90;;;;;;5125860;28;20039;-80
2023/01/22 11:30:03;;;;;;;8.75;5.30;;;1.60;99.90;;;;;;5126321;28;20040;-80
2023/01/22 11:32:44;;;;;;;11.18;5.68;;;1.60;99.90;;;;;;5126539;28;20111;-80
2023/01/22 11:35:30;;;;;;;12.02;6.03;;;1.60;99.90;;;;;;5126030;28;20032;-79
2023/01/22 11:38:09;;;;;;;10.05;5.82;;;1.60;99.90;;;;;;5126178;28;20040;-80
2023/01/22 11:40:56;;;;;;;9.43;5.30;;;1.50;99.90;;;;;;5126550;28;20083;-80
2023/01/22 11:43:41;;;;;;;8.07;5.50;;;1.60;99.90;;;;;;5125997;28;20054;-80
2023/01/22 11:46:40;;;;;;;8.38;5.10;;;1.60;99.90;;;;;;5126009;28;20036;-79
2023/01/22 11:49:12;;;;;;;10.23;6.38;;;1.60;99.90;;;;;;5105721;28;20074;-80
2023/01/22 11:52:09;;;;;;;9.10;5.45;;;1.60;99.90;;;;;;5105299;28;20040;-79
2023/01/22 11:55:04;;;;;;;7.93;4.63;;;1.60;99.90;;;;;;5105712;28;20060;-80
2023/01/22 11:58:00;;;;;;;9.18;5.10;;;1.50;99.90;;;;;;5125792;28;20092;-80
2023/01/22 12:00:40;;;;;;;9.45;5.28;;;1.50;99.90;;;;;;5074189;28;20063;-80
2023/01/22 12:03:28;;;;;;;10.07;5.38;;;1.50;99.90;;;;;;5138856;28;20032;-80
2023/01/22 12:06:18;;;;;;;10.05;5.07;;;1.60;99.90;;;;;;5111999;28;20044;-80
2023/01/22 12:08:44;;;;;;;9.27;5.53;;;1.60;99.90;;;;;;5119700;28;20051;-79
2023/01/22 12:11:11;;;;;;;7.82;5.03;;;1.60;99.90;;;;;;5109098;28;20484;-80
2023/01/22 12:13:38;;;;;;;8.50;5.30;;;1.60;99.90;;;;;;5109191;28;20074;-80
2023/01/22 12:16:04;;;;;;;9.10;5.40;;;2.10;99.90;;;;;;5108419;28;20166;-80
2023/01/22 12:19:00;;;;;;;9.75;4.78;;;1.60;99.90;;;;;;5126344;28;20110;-80
2023/01/22 12:21:35;;;;;;;9.75;5.20;;;1.60;99.90;;;;;;5125586;28;20392;-80
2023/01/22 12:24:28;;;;;;;;;;;1.60;99.90;;;;;;5125657;28;20044;-79
2023/01/22 12:26:58;;;;;;;8.65;4.80;;;1.60;99.90;;;;;;5104021;28;20131;-80
2023/01/22 12:29:30;;;;;;;12.65;5.55;;;2.20;99.90;;;;;;5129554;28;20040;-80
2023/01/22 12:32:09;;;;;;;11.00;6.03;;;1.70;99.90;;;;;;5129412;28;20048;-80
2023/01/22 12:34:49;;;;;;;10.13;5.30;;;1.70;99.90;;;;;;5112580;28;20450;-80
2023/01/22 12:37:20;;;;;;;9.30;5.20;;;1.70;99.90;;;;;;5129573;28;20428;-79
2023/01/22 12:40:22;;;;;;;8.95;4.53;;;1.90;99.90;;;;;;5129577;28;20051;-80
2023/01/22 12:43:09;;;;;;;9.23;5.32;;;1.70;99.90;;;;;;5129224;28;20039;-79
2023/01/22 12:45:53;;;;;;;10.18;4.75;;;1.80;99.90;;;;;;5095851;28;20044;-80
2023/01/22 12:48:58;;;;;;;11.15;5.00;;;1.80;99.90;;;;;;5130744;28;20116;-80
2023/01/22 12:51:48;;;;;;;11.18;5.28;;;1.80;99.90;;;;;;5092087;28;20455;-81
2023/01/22 12:54:35;;;;;;;8.95;5.13;;;1.80;99.90;;;;;;5108582;28;20040;-80
2023/01/22 12:57:21;;;;;;;;;;;1.80;99.90;;;;;;5108854;28;20052;-80
2023/01/22 12:59:56;;;;;;;10.73;5.00;;;1.80;99.90;;;;;;5108588;28;20353;-80
2023/01/22 13:02:27;;;;;;;8.70;4.75;;;1.80;99.90;;;;;;5108843;28;20071;-80
2023/01/22 13:04:54;;;;;;;10.98;4.60;;;1.80;99.90;;;;;;5125125;28;20044;-80
2023/01/22 13:07:30;;;;;;;7.30;4.47;;;1.90;99.90;;;;;;5091779;28;20043;-80
2023/01/22 13:10:21;;;;;;;;;;;2.40;99.90;;;;;;5096671;28;20075;-81
2023/01/22 13:12:51;;;;;;;8.35;4.20;;;1.90;99.90;;;;;;5129120;28;20292;-81
2023/01/22 13:15:34;;;;;;;9.30;4.60;;;1.90;99.90;;;;;;5111650;28;20508;-81
2023/01/22 13:18:15;;;;;;;12.27;5.28;;;2.00;99.90;;;;;;5111175;28;20043;-81